Time;durP1;ratioP1;P1;durP2;ratioP2;P2;SDS_P1;SDS_P2;PMS_P1;PMS_P2;Temp;Humidity;BMP_temperature;BMP_pressure;BME280_temperature;BME280_humidity;BME280_pressure;Samples;Min_cycle;Max_cycle;Signal;HPM_P1;HPM_P2
2023/01/15 00:01:24;;;;;;;10.13;1.58;;;6.10;99.90;;;;;;5052292;28;20084;-52
2023/01/15 00:03:50;;;;;;;12.73;2.20;;;6.00;99.90;;;;;;5056249;28;20520;-49
2023/01/15 00:06:16;;;;;;;15.45;3.00;;;6.00;99.90;;;;;;5057387;28;20071;-50
2023/01/15 00:08:43;;;;;;;13.13;1.63;;;6.00;99.90;;;;;;5057985;28;20989;-49
2023/01/15 00:11:09;;;;;;;12.52;2.05;;;6.10;99.90;;;;;;5057067;28;20040;-49
2023/01/15 00:13:34;;;;;;;15.88;1.75;;;6.00;99.90;;;;;;5057700;28;20044;-48
2023/01/15 00:16:14;;;;;;;11.35;1.40;;;6.00;99.90;;;;;;5056634;28;20048;-49
2023/01/15 00:18:40;;;;;;;11.93;1.95;;;6.10;99.90;;;;;;5055584;28;20071;-51
2023/01/15 00:21:10;;;;;;;19.40;3.80;;;5.90;99.90;;;;;;5056360;28;20284;-50
2023/01/15 00:29:06;;;;;;;14.70;1.88;;;6.10;99.90;;;;;;5056050;28;20091;-46
2023/01/15 00:31:34;;;;;;;9.68;1.58;;;5.90;99.90;;;;;;5056222;28;20040;-48
2023/01/15 00:34:00;;;;;;;20.60;1.92;;;6.00;99.90;;;;;;5054849;28;20748;-50
2023/01/15 00:36:26;;;;;;;18.02;1.88;;;6.00;99.90;;;;;;5054976;28;20064;-48
2023/01/15 00:38:52;;;;;;;10.23;1.70;;;6.00;99.90;;;;;;5054030;28;20047;-50
2023/01/15 00:41:18;;;;;;;14.05;1.92;;;6.10;99.90;;;;;;5055901;28;20595;-48
2023/01/15 00:43:44;;;;;;;12.77;2.10;;;6.00;99.90;;;;;;5054641;28;20377;-48
2023/01/15 00:46:09;;;;;;;12.75;1.77;;;6.00;99.90;;;;;;5055384;28;20064;-48
2023/01/15 00:48:35;;;;;;;12.68;2.42;;;6.00;99.90;;;;;;5054598;28;20476;-49
2023/01/15 00:51:02;;;;;;;15.57;2.83;;;6.00;99.90;;;;;;5054806;28;20029;-46
2023/01/15 00:53:28;;;;;;;16.30;2.80;;;6.10;99.90;;;;;;5055657;28;20692;-49
2023/01/15 00:55:53;;;;;;;16.98;2.28;;;6.10;99.90;;;;;;5054731;28;20285;-49
2023/01/15 00:58:19;;;;;;;15.07;3.10;;;;;;;;;;5055103;28;20588;-50
2023/01/15 01:00:45;;;;;;;13.80;2.33;;;6.10;99.90;;;;;;5054428;28;20106;-49
2023/01/15 01:03:11;;;;;;;9.13;1.63;;;6.00;99.90;;;;;;5053897;28;20521;-49
2023/01/15 01:05:37;;;;;;;13.05;1.60;;;6.00;99.90;;;;;;5053550;28;20134;-47
2023/01/15 01:08:02;;;;;;;14.70;2.28;;;6.10;99.90;;;;;;5054809;28;20041;-46
2023/01/15 01:10:28;;;;;;;15.95;2.47;;;6.00;99.90;;;;;;5054696;28;20036;-47
2023/01/15 01:12:54;;;;;;;13.95;2.28;;;6.00;99.90;;;;;;5054694;28;20032;-51
2023/01/15 01:15:21;;;;;;;10.98;1.75;;;6.30;99.90;;;;;;5053956;28;20127;-51
2023/01/15 01:17:47;;;;;;;10.00;1.75;;;6.10;99.90;;;;;;5053358;28;20421;-46
2023/01/15 01:20:14;;;;;;;17.30;1.75;;;6.00;99.90;;;;;;5055006;28;20044;-47
2023/01/15 01:22:40;;;;;;;10.95;1.92;;;5.90;99.90;;;;;;5054004;28;20045;-50
2023/01/15 01:25:07;;;;;;;12.85;1.98;;;5.90;99.90;;;;;;5056683;28;20481;-50
2023/01/15 01:27:33;;;;;;;16.00;1.77;;;;;;;;;;5053393;28;20028;-48
2023/01/15 01:29:59;;;;;;;14.40;2.25;;;6.00;99.90;;;;;;5055358;28;20040;-50
2023/01/15 01:32:25;;;;;;;10.57;1.48;;;;;;;;;;5054525;28;20812;-49
2023/01/15 01:34:50;;;;;;;11.02;1.60;;;6.10;99.90;;;;;;5055498;28;20064;-52
2023/01/15 01:37:17;;;;;;;12.00;2.08;;;;;;;;;;5054913;28;20124;-49
2023/01/15 01:39:43;;;;;;;13.50;2.40;;;6.60;99.90;;;;;;5055216;28;20052;-50
2023/01/15 01:42:14;;;;;;;10.85;1.70;;;6.00;99.90;;;;;;5054672;28;20044;-47
2023/01/15 01:44:41;;;;;;;11.85;2.40;;;;;;;;;;5054773;28;21738;-50
2023/01/15 01:47:14;;;;;;;12.15;1.88;;;5.80;99.90;;;;;;5053359;28;20390;-52
2023/01/15 01:49:42;;;;;;;16.10;2.00;;;6.00;99.90;;;;;;5053671;28;20045;-49
2023/01/15 01:52:17;;;;;;;13.23;2.17;;;5.80;99.90;;;;;;5054441;28;20033;-50
2023/01/15 01:54:45;;;;;;;14.50;2.20;;;5.90;99.90;;;;;;5053278;28;20044;-51
2023/01/15 01:57:12;;;;;;;13.45;2.72;;;6.00;99.90;;;;;;5053864;28;20432;-51
2023/01/15 01:59:38;;;;;;;14.20;2.40;;;6.10;99.90;;;;;;5052678;28;20127;-49
2023/01/15 02:02:05;;;;;;;11.38;2.30;;;6.00;99.90;;;;;;5051670;28;20047;-48
2023/01/15 02:04:31;;;;;;;17.67;2.55;;;5.90;99.90;;;;;;5053016;28;20033;-50
2023/01/15 02:06:58;;;;;;;23.85;3.40;;;6.00;99.90;;;;;;5053341;28;20040;-50
2023/01/15 02:09:24;;;;;;;16.38;2.25;;;6.00;99.90;;;;;;5053553;28;20401;-49
2023/01/15 02:11:55;;;;;;;14.20;2.05;;;5.90;99.90;;;;;;5052865;28;20032;-50
2023/01/15 02:14:21;;;;;;;16.70;2.20;;;6.00;99.90;;;;;;5051867;28;20079;-50
2023/01/15 02:16:47;;;;;;;15.98;3.75;;;;;;;;;;5052788;28;20048;-51
2023/01/15 02:19:35;;;;;;;13.50;2.58;;;6.00;99.90;;;;;;5052612;28;20386;-50
2023/01/15 02:22:00;;;;;;;11.68;2.30;;;5.80;99.90;;;;;;5053046;28;20406;-47
2023/01/15 02:24:46;;;;;;;13.30;2.10;;;5.80;99.90;;;;;;5053961;28;20067;-50
2023/01/15 02:27:20;;;;;;;14.50;2.20;;;6.00;99.90;;;;;;5052078;28;20048;-49
2023/01/15 02:30:05;;;;;;;12.15;2.13;;;5.80;99.90;;;;;;5053105;28;20053;-49
2023/01/15 02:32:31;;;;;;;13.80;1.95;;;;;;;;;;5051752;28;21206;-50
2023/01/15 02:35:04;;;;;;;12.50;1.88;;;5.80;99.90;;;;;;5052400;28;20457;-50
2023/01/15 02:37:36;;;;;;;12.27;2.22;;;5.90;99.90;;;;;;5051871;28;20135;-51
2023/01/15 02:40:04;;;;;;;13.57;2.25;;;6.00;99.90;;;;;;5050758;28;20374;-51
2023/01/15 02:42:32;;;;;;;11.82;2.05;;;6.10;99.90;;;;;;5052292;28;20040;-49
2023/01/15 02:45:00;;;;;;;15.30;3.13;;;5.90;99.90;;;;;;5053631;28;20102;-49
2023/01/15 02:47:29;;;;;;;13.77;3.05;;;5.90;99.90;;;;;;5052783;28;20032;-48
2023/01/15 02:49:59;;;;;;;16.17;2.25;;;6.00;99.90;;;;;;5052766;28;20164;-48
2023/01/15 02:52:37;;;;;;;17.45;2.92;;;5.80;99.90;;;;;;5052812;28;20036;-50
2023/01/15 02:55:09;;;;;;;11.82;2.60;;;5.90;99.90;;;;;;5051751;28;20068;-49
2023/01/15 02:57:37;;;;;;;12.13;2.55;;;6.00;99.90;;;;;;5052096;28;20044;-48
2023/01/15 03:00:09;;;;;;;13.93;1.83;;;5.90;99.90;;;;;;5052523;28;20053;-50
2023/01/15 03:02:41;;;;;;;14.77;2.22;;;5.80;99.90;;;;;;5052722;28;20128;-50
2023/01/15 03:05:12;;;;;;;13.93;2.28;;;5.90;99.90;;;;;;5052777;28;20029;-50
2023/01/15 03:07:49;;;;;;;14.07;2.17;;;6.00;99.90;;;;;;5052993;28;20086;-48
2023/01/15 03:10:15;;;;;;;18.13;4.03;;;5.80;99.90;;;;;;5052328;28;20068;-52
2023/01/15 03:13:01;;;;;;;14.13;3.28;;;5.80;99.90;;;;;;5052828;28;20048;-50
2023/01/15 03:18:25;;;;;;;15.82;3.90;;;;;;;;;;5052560;28;20518;-49
2023/01/15 03:20:55;;;;;;;15.48;2.10;;;5.60;99.90;;;;;;5053713;28;20060;-51
2023/01/15 03:23:24;;;;;;;12.57;1.90;;;5.80;99.90;;;;;;5051509;28;20044;-47
2023/01/15 03:25:50;;;;;;;19.27;2.30;;;5.80;99.90;;;;;;5052154;28;20327;-51
2023/01/15 03:28:24;;;;;;;12.45;2.33;;;5.80;99.90;;;;;;5052580;28;20055;-49
2023/01/15 03:30:50;;;;;;;15.48;2.55;;;;;;;;;;5051213;28;20049;-46
2023/01/15 03:33:17;;;;;;;7.90;2.22;;;5.80;99.90;;;;;;5052145;28;20131;-45
2023/01/15 03:35:43;;;;;;;13.75;1.60;;;;;;;;;;5051046;28;20477;-50
2023/01/15 03:38:10;;;;;;;17.67;2.05;;;5.80;99.90;;;;;;5051406;28;20094;-49
2023/01/15 03:40:43;;;;;;;14.85;1.90;;;5.70;99.90;;;;;;5051258;28;20045;-49
2023/01/15 03:46:05;;;;;;;18.58;2.72;;;5.50;99.90;;;;;;5052258;28;20045;-50
2023/01/15 03:48:38;;;;;;;16.70;2.50;;;5.80;99.90;;;;;;5049558;28;20068;-48
2023/01/15 03:51:03;;;;;;;15.98;2.35;;;5.80;99.90;;;;;;5051916;28;20516;-51
2023/01/15 03:53:39;;;;;;;21.08;2.97;;;5.70;99.90;;;;;;5051036;28;20127;-51
2023/01/15 03:56:11;;;;;;;18.83;2.67;;;5.60;99.90;;;;;;5051517;28;20083;-49
2023/01/15 03:58:48;;;;;;;13.30;2.58;;;5.70;99.90;;;;;;5051132;28;20056;-49
2023/01/15 04:01:18;;;;;;;15.60;2.45;;;5.80;99.90;;;;;;5052441;28;20033;-50
2023/01/15 04:03:47;;;;;;;12.30;1.98;;;5.80;99.90;;;;;;5051297;28;20562;-49
2023/01/15 04:06:13;;;;;;;12.60;2.03;;;5.70;99.90;;;;;;5052482;28;20040;-49
2023/01/15 04:08:42;;;;;;;18.98;3.28;;;5.70;99.90;;;;;;5050542;28;20036;-50
2023/01/15 04:11:09;;;;;;;18.65;2.63;;;;;;;;;;5050822;28;20517;-49
2023/01/15 04:13:35;;;;;;;11.55;1.85;;;;;;;;;;5050450;28;20060;-52
2023/01/15 04:16:01;;;;;;;15.27;2.53;;;5.50;99.90;;;;;;5052300;28;20080;-49
2023/01/15 04:18:27;;;;;;;10.48;1.90;;;;;;;;;;5050355;28;20160;-47
2023/01/15 04:20:54;;;;;;;10.35;1.83;;;;;;;;;;5051947;28;20047;-50
2023/01/15 04:23:20;;;;;;;13.52;2.30;;;5.60;99.90;;;;;;5051378;28;20059;-51
2023/01/15 04:25:46;;;;;;;17.55;2.38;;;5.70;99.90;;;;;;5052574;28;20051;-49
2023/01/15 04:28:12;;;;;;;13.95;2.88;;;;;;;;;;5051761;28;20045;-48
2023/01/15 04:30:38;;;;;;;14.40;2.40;;;;;;;;;;5052759;28;20438;-49
2023/01/15 04:33:04;;;;;;;13.35;2.22;;;5.60;99.90;;;;;;5051648;28;20060;-49
2023/01/15 04:35:30;;;;;;;18.05;2.08;;;;;;;;;;5053097;28;20052;-49
2023/01/15 04:37:57;;;;;;;15.32;2.47;;;5.80;99.90;;;;;;5051073;28;20040;-50
2023/01/15 04:45:57;;;;;;;14.63;2.13;;;;;;;;;;5052159;28;20052;-50
2023/01/15 04:48:22;;;;;;;13.48;1.92;;;5.60;99.90;;;;;;5053277;28;20135;-47
2023/01/15 04:50:49;;;;;;;16.40;2.08;;;;;;;;;;5054599;28;20432;-50
2023/01/15 04:53:15;;;;;;;10.38;1.60;;;5.50;99.90;;;;;;5054432;28;20284;-50
2023/01/15 04:55:41;;;;;;;13.10;1.70;;;;;;;;;;5055031;28;20105;-51
2023/01/15 04:58:07;;;;;;;15.05;2.17;;;;;;;;;;5055476;28;20095;-47
2023/01/15 05:00:34;;;;;;;14.10;2.95;;;;;;;;;;5054419;28;20155;-50
2023/01/15 05:03:00;;;;;;;16.40;2.45;;;;;;;;;;5053985;28;20091;-50
2023/01/15 05:05:26;;;;;;;15.25;2.33;;;;;;;;;;5055029;28;20047;-50
2023/01/15 05:07:52;;;;;;;16.25;2.00;;;5.20;99.90;;;;;;5054024;28;20041;-50
2023/01/15 05:10:18;;;;;;;14.93;2.25;;;;;;;;;;5053965;28;20043;-50
2023/01/15 05:12:44;;;;;;;12.88;1.88;;;;;;;;;;5053682;28;20072;-49
2023/01/15 05:15:10;;;;;;;16.05;2.22;;;;;;;;;;5054612;28;20094;-47
2023/01/15 05:17:36;;;;;;;12.18;1.77;;;;;;;;;;5054878;28;20045;-50
2023/01/15 05:20:03;;;;;;;14.57;2.28;;;;;;;;;;5053978;28;20041;-51
2023/01/15 05:22:29;;;;;;;17.90;2.20;;;;;;;;;;5053055;28;20529;-50
2023/01/15 05:24:55;;;;;;;13.38;2.13;;;;;;;;;;5053327;28;20048;-51
2023/01/15 05:27:21;;;;;;;11.95;1.83;;;;;;;;;;5054347;28;20568;-50
2023/01/15 05:29:47;;;;;;;15.52;3.38;;;5.30;99.90;;;;;;5053176;28;20037;-51
2023/01/15 05:32:13;;;;;;;12.95;1.98;;;;;;;;;;5053055;28;20051;-51
2023/01/15 05:34:39;;;;;;;16.60;2.03;;;;;;;;;;5053404;28;20036;-46
2023/01/15 05:37:05;;;;;;;14.10;2.20;;;;;;;;;;5053920;28;20053;-49
2023/01/15 05:39:32;;;;;;;14.40;1.95;;;;;;;;;;5053667;28;20036;-51
2023/01/15 05:41:58;;;;;;;21.40;2.28;;;;;;;;;;5052904;28;20052;-47
2023/01/15 05:44:28;;;;;;;12.30;1.70;;;5.20;99.90;;;;;;5051971;28;20067;-49
2023/01/15 05:47:04;;;;;;;17.48;2.08;;;5.20;99.90;;;;;;5031714;28;20044;-50
2023/01/15 05:49:31;;;;;;;12.23;1.95;;;;;;;;;;5052929;28;20401;-51
2023/01/15 05:51:59;;;;;;;16.30;2.10;;;5.10;99.90;;;;;;5054820;28;20152;-49
2023/01/15 05:54:29;;;;;;;15.82;2.63;;;5.10;99.90;;;;;;5054107;28;20152;-50
2023/01/15 05:56:56;;;;;;;17.80;2.55;;;;;;;;;;5053845;28;20056;-51
2023/01/15 05:59:24;;;;;;;12.60;2.30;;;5.10;99.90;;;;;;5054124;28;20127;-48
2023/01/15 06:01:51;;;;;;;16.33;2.20;;;5.10;99.90;;;;;;5054734;28;20528;-49
2023/01/15 06:04:19;;;;;;;17.05;4.05;;;5.10;99.90;;;;;;5054565;28;20040;-50
2023/01/15 06:06:46;;;;;;;9.85;1.85;;;5.10;99.90;;;;;;5053990;28;20062;-50
2023/01/15 06:09:12;;;;;;;14.38;2.55;;;;;;;;;;5052835;28;20065;-49
2023/01/15 06:11:39;;;;;;;11.85;1.70;;;;;;;;;;5053958;28;20062;-50
2023/01/15 06:14:05;;;;;;;13.48;2.28;;;;;;;;;;5052318;28;20541;-48
2023/01/15 06:16:31;;;;;;;10.00;1.85;;;5.00;99.90;;;;;;5053880;28;20508;-51
2023/01/15 06:19:03;;;;;;;16.40;2.03;;;5.10;99.90;;;;;;5050429;28;20098;-49
2023/01/15 06:21:29;;;;;;;14.77;1.80;;;;;;;;;;5052962;28;20115;-50
2023/01/15 06:23:55;;;;;;;10.85;1.63;;;;;;;;;;5051904;28;20412;-52
2023/01/15 06:26:21;;;;;;;9.02;1.80;;;;;;;;;;5052847;28;20178;-48
2023/01/15 06:28:48;;;;;;;9.63;2.10;;;;;;;;;;5053049;28;20059;-49
2023/01/15 06:31:17;;;;;;;13.52;2.00;;;5.10;99.90;;;;;;5053205;28;20150;-50
2023/01/15 06:33:43;;;;;;;11.27;1.75;;;5.10;99.90;;;;;;5051760;28;20074;-50
2023/01/15 06:36:14;;;;;;;15.43;1.83;;;5.10;99.90;;;;;;5051444;28;20550;-50
2023/01/15 06:38:41;;;;;;;10.23;1.75;;;;;;;;;;5052001;28;20048;-46
2023/01/15 06:49:31;;;;;;;14.93;1.65;;;;;;;;;;5052787;28;20486;-48
2023/01/15 06:51:57;;;;;;;12.85;1.85;;;;;;;;;;5052359;28;20623;-49
2023/01/15 06:54:23;;;;;;;9.82;2.15;;;;;;;;;;5052047;28;20051;-48
2023/01/15 06:56:49;;;;;;;13.40;1.60;;;;;;;;;;5050606;28;21245;-50
2023/01/15 06:59:15;;;;;;;9.45;1.40;;;;;;;;;;5053227;28;20640;-49
2023/01/15 07:01:41;;;;;;;21.25;2.05;;;5.30;99.90;;;;;;5052080;28;20037;-48
2023/01/15 07:04:07;;;;;;;9.93;2.05;;;;;;;;;;5051369;28;20463;-50
2023/01/15 07:06:34;;;;;;;15.60;2.25;;;;;;;;;;5052310;28;21348;-50
2023/01/15 07:09:00;;;;;;;15.55;2.17;;;;;;;;;;5054032;28;20059;-47
2023/01/15 07:11:25;;;;;;;12.43;2.50;;;4.90;99.90;;;;;;5052693;28;20041;-48
2023/01/15 07:14:04;;;;;;;16.67;2.72;;;;;;;;;;5052737;28;20094;-48
2023/01/15 07:16:34;;;;;;;12.48;1.95;;;4.90;99.90;;;;;;5054592;28;20047;-48
2023/01/15 07:19:01;;;;;;;12.93;1.45;;;;;;;;;;5053543;28;20044;-50
2023/01/15 07:21:27;;;;;;;11.75;1.77;;;;;;;;;;5053509;28;20413;-50
2023/01/15 07:23:53;;;;;;;10.02;1.80;;;4.90;99.90;;;;;;5053545;28;20119;-50
2023/01/15 07:26:20;;;;;;;10.18;1.85;;;;;;;;;;5052994;28;20451;-50
2023/01/15 07:28:46;;;;;;;14.50;2.00;;;;;;;;;;5053027;28;20044;-50
2023/01/15 07:31:12;;;;;;;11.70;1.90;;;;;;;;;;5052125;28;20032;-48
2023/01/15 07:33:38;;;;;;;13.25;1.60;;;;;;;;;;5051140;28;20040;-51
2023/01/15 07:36:04;;;;;;;9.57;1.35;;;5.10;99.90;;;;;;5051356;28;20228;-50
2023/01/15 07:38:30;;;;;;;11.18;1.85;;;;;;;;;;5050676;28;20417;-50
2023/01/15 07:51:57;;;;;;;11.77;1.48;;;;;;;;;;5050810;28;20102;-46
2023/01/15 07:54:23;;;;;;;11.70;2.08;;;;;;;;;;5051210;28;20032;-50
2023/01/15 07:56:51;;;;;;;12.98;1.50;;;5.20;99.90;;;;;;5051224;28;20520;-48
2023/01/15 07:59:18;;;;;;;10.05;2.92;;;;;;;;;;5051174;28;20044;-49
2023/01/15 08:01:44;;;;;;;10.93;2.05;;;;;;;;;;5052218;28;20045;-47
2023/01/15 08:04:10;;;;;;;9.95;1.67;;;;;;;;;;5049699;28;20497;-49
2023/01/15 08:06:36;;;;;;;10.20;2.50;;;;;;;;;;5050920;28;20044;-50
2023/01/15 08:09:02;;;;;;;13.15;1.83;;;5.20;99.90;;;;;;5051038;28;20552;-51
2023/01/15 08:16:58;;;;;;;11.77;2.13;;;;;;;;;;5050471;28;20044;-50
2023/01/15 08:19:24;;;;;;;12.82;1.80;;;;;;;;;;5052118;28;20036;-49
2023/01/15 08:21:51;;;;;;;10.57;1.75;;;;;;;;;;5052621;28;20037;-50
2023/01/15 08:24:17;;;;;;;12.98;1.90;;;;;;;;;;5052887;28;20059;-50
2023/01/15 08:26:43;;;;;;;15.07;2.33;;;;;;;;;;5054174;28;20080;-51
2023/01/15 08:29:09;;;;;;;11.73;1.45;;;;;;;;;;5055728;28;20131;-48
2023/01/15 08:31:35;;;;;;;11.57;1.50;;;;;;;;;;5057211;28;20303;-50
2023/01/15 08:34:02;;;;;;;12.35;1.52;;;;;;;;;;5056549;28;20086;-50
2023/01/15 08:36:28;;;;;;;12.05;1.88;;;5.20;99.90;;;;;;5055669;28;20052;-50
2023/01/15 08:38:54;;;;;;;9.90;1.48;;;;;;;;;;5055607;28;20113;-48
2023/01/15 08:41:20;;;;;;;15.02;2.20;;;;;;;;;;5056861;28;20044;-49
2023/01/15 08:43:46;;;;;;;13.77;2.17;;;;;;;;;;5054335;28;20098;-49
2023/01/15 08:46:12;;;;;;;14.07;2.28;;;;;;;;;;5055080;28;20131;-50
2023/01/15 08:48:38;;;;;;;10.32;1.80;;;;;;;;;;5053666;28;20477;-50
2023/01/15 08:51:13;;;;;;;16.08;2.70;;;4.90;36.40;;;;;;5055542;28;20386;-51
2023/01/15 08:53:39;;;;;;;15.40;2.75;;;;;;;;;;5055555;28;20446;-52
2023/01/15 08:56:14;;;;;;;12.60;2.88;;;4.40;78.50;;;;;;5054934;28;20048;-51
2023/01/15 08:58:40;;;;;;;11.50;1.90;;;;;;;;;;5053579;28;20052;-49
2023/01/15 09:01:08;;;;;;;12.30;3.47;;;4.50;85.80;;;;;;5054962;28;20044;-48
2023/01/15 09:03:35;;;;;;;10.73;1.80;;;4.60;99.90;;;;;;5054040;28;20029;-49
2023/01/15 09:06:01;;;;;;;11.32;1.92;;;4.70;99.90;;;;;;5053506;28;20101;-51
2023/01/15 09:08:28;;;;;;;12.45;1.33;;;4.70;99.90;;;;;;5052236;28;20044;-47
2023/01/15 09:10:58;;;;;;;11.38;1.60;;;4.60;99.90;;;;;;5054400;28;21154;-49
2023/01/15 09:13:25;;;;;;;8.45;2.35;;;4.80;99.90;;;;;;5054137;28;20159;-48
2023/01/15 09:15:51;;;;;;;11.48;1.48;;;;;;;;;;5053542;28;20125;-50
2023/01/15 09:18:19;;;;;;;8.25;2.17;;;;;;;;;;5053031;28;20064;-48
2023/01/15 09:20:48;;;;;;;11.02;2.47;;;4.90;99.90;;;;;;5054059;28;20457;-50
2023/01/15 09:23:14;;;;;;;15.95;3.25;;;5.00;99.90;;;;;;5054431;28;20411;-47
2023/01/15 09:25:41;;;;;;;14.93;2.17;;;;;;;;;;5054257;28;20110;-49
2023/01/15 09:28:07;;;;;;;12.05;1.90;;;5.30;99.90;;;;;;5053563;28;20040;-47
2023/01/15 09:30:33;;;;;;;11.18;1.65;;;;;;;;;;5053875;28;20562;-50
2023/01/15 09:32:59;;;;;;;10.25;1.65;;;;;;;;;;5052811;28;20094;-49
2023/01/15 09:35:26;;;;;;;9.63;2.83;;;;;;;;;;5050763;28;20049;-47
2023/01/15 09:37:52;;;;;;;16.52;2.63;;;;;;;;;;5054175;28;20044;-48
2023/01/15 09:40:59;;;;;;;13.25;2.15;;;6.60;99.90;;;;;;5054040;28;20048;-50
2023/01/15 09:43:47;;;;;;;13.95;2.22;;;6.80;99.90;;;;;;5053877;28;20275;-47
2023/01/15 09:46:19;;;;;;;13.70;1.92;;;6.70;99.90;;;;;;5054730;28;20036;-51
2023/01/15 09:49:14;;;;;;;15.15;2.15;;;6.90;99.90;;;;;;5053646;28;20713;-49
2023/01/15 09:52:07;;;;;;;17.83;1.73;;;6.90;99.90;;;;;;4999530;28;20140;-49
2023/01/15 09:54:44;;;;;;;9.00;1.50;;;7.00;99.90;;;;;;5056365;28;20044;-47
2023/01/15 09:57:12;;;;;;;12.00;2.13;;;6.50;99.90;;;;;;5054800;28;20126;-47
2023/01/15 09:59:41;;;;;;;13.02;2.28;;;6.60;99.90;;;;;;5055283;28;20036;-50
2023/01/15 10:02:23;;;;;;;13.45;2.53;;;6.70;99.90;;;;;;5053874;28;20106;-49
2023/01/15 10:04:56;;;;;;;10.75;2.00;;;6.30;99.90;;;;;;5052836;28;20094;-49
2023/01/15 10:07:33;;;;;;;11.65;2.38;;;6.40;99.90;;;;;;5053104;28;20188;-50
2023/01/15 10:10:09;;;;;;;14.20;2.13;;;6.80;99.90;;;;;;5052846;28;20051;-50
2023/01/15 10:12:41;;;;;;;12.77;1.88;;;7.50;99.90;;;;;;5053664;28;20644;-49
2023/01/15 10:15:26;;;;;;;12.05;2.10;;;7.50;99.90;;;;;;5053225;28;20131;-51
2023/01/15 10:17:55;;;;;;;13.85;2.30;;;7.30;99.90;;;;;;5051847;28;20059;-51
2023/01/15 10:20:30;;;;;;;12.43;2.53;;;7.20;99.90;;;;;;5052958;28;20621;-50
2023/01/15 10:22:56;;;;;;;13.48;2.13;;;7.40;99.90;;;;;;5053949;28;20127;-49
2023/01/15 10:25:29;;;;;;;12.57;1.88;;;7.60;99.90;;;;;;5052436;28;20051;-52
2023/01/15 10:28:03;;;;;;;11.18;1.70;;;7.60;99.90;;;;;;5053110;28;20068;-52
2023/01/15 10:30:41;;;;;;;14.57;2.53;;;7.70;99.90;;;;;;5052792;28;20497;-48
2023/01/15 10:33:42;;;;;;;15.55;2.03;;;7.30;99.90;;;;;;5051868;28;20821;-47
2023/01/15 10:36:31;;;;;;;13.02;1.90;;;7.10;99.90;;;;;;5052316;28;20057;-52
2023/01/15 10:39:14;;;;;;;12.20;1.80;;;7.00;99.90;;;;;;5053155;28;20044;-50
2023/01/15 10:41:55;;;;;;;16.95;2.13;;;7.00;99.90;;;;;;5052619;28;20536;-50
2023/01/15 10:44:44;;;;;;;13.88;1.70;;;6.90;99.90;;;;;;5052483;28;20090;-47
2023/01/15 10:47:14;;;;;;;12.27;2.38;;;7.10;99.90;;;;;;5050776;28;20895;-48
2023/01/15 10:49:41;;;;;;;15.90;2.53;;;7.10;99.90;;;;;;5052370;28;20045;-49
2023/01/15 10:52:24;;;;;;;11.32;1.98;;;6.50;99.90;;;;;;5052795;28;20061;-50
2023/01/15 10:54:56;;;;;;;20.17;2.83;;;6.90;99.90;;;;;;5053386;28;20089;-48
2023/01/15 10:58:09;;;;;;;12.60;2.15;;;6.80;99.90;;;;;;5053192;28;20048;-50
2023/01/15 11:00:35;;;;;;;;;;;6.80;99.90;;;;;;5051688;28;20472;-50
2023/01/15 11:03:07;;;;;;;12.82;1.88;;;6.70;99.90;;;;;;5052982;28;20428;-50
2023/01/15 11:05:34;;;;;;;13.90;2.30;;;6.80;99.90;;;;;;5054130;28;20151;-49
2023/01/15 11:08:03;;;;;;;15.32;2.22;;;7.10;99.90;;;;;;5053025;28;20033;-50
2023/01/15 11:10:29;;;;;;;15.43;2.10;;;7.20;99.90;;;;;;5053500;28;20036;-50
2023/01/15 11:21:26;;;;;;;15.13;2.70;;;7.50;99.90;;;;;;5052423;28;20127;-49
2023/01/15 11:23:54;;;;;;;13.02;1.85;;;7.40;99.90;;;;;;5052107;28;20066;-50
2023/01/15 11:26:31;;;;;;;14.75;2.50;;;7.20;99.90;;;;;;5052061;28;20037;-49
2023/01/15 11:29:12;;;;;;;10.15;2.03;;;7.10;99.90;;;;;;5051144;28;20133;-51
2023/01/15 11:31:39;;;;;;;10.00;1.92;;;7.10;99.90;;;;;;5051472;28;20052;-51
2023/01/15 11:34:16;;;;;;;12.30;1.75;;;6.90;99.90;;;;;;5051262;28;20131;-50
2023/01/15 11:36:42;;;;;;;12.98;2.50;;;6.90;99.90;;;;;;5050958;28;20062;-50
2023/01/15 11:39:29;;;;;;;14.38;1.83;;;6.90;99.90;;;;;;5051809;28;20044;-50
2023/01/15 11:51:16;;;;;;;19.38;2.95;;;6.60;99.90;;;;;;5027735;28;20114;-49
2023/01/15 11:53:53;;;;;;;17.10;2.53;;;6.60;99.90;;;;;;5027882;28;20167;-49
2023/01/15 11:56:24;;;;;;;14.57;2.55;;;6.50;99.90;;;;;;5044099;28;20052;-51
2023/01/15 11:58:53;;;;;;;17.73;2.20;;;6.60;99.90;;;;;;5054172;28;20033;-49
2023/01/15 12:01:31;;;;;;;20.50;2.92;;;6.60;99.90;;;;;;5056258;28;20285;-49
2023/01/15 12:03:59;;;;;;;14.82;2.13;;;6.70;99.90;;;;;;5054415;28;20210;-49
2023/01/15 12:06:26;;;;;;;18.23;3.53;;;6.80;99.90;;;;;;5055002;28;20036;-50
2023/01/15 12:08:57;;;;;;;11.55;1.92;;;6.70;99.90;;;;;;5055652;28;20766;-52
2023/01/15 12:11:48;;;;;;;17.67;2.00;;;5.90;99.90;;;;;;5055608;28;20041;-49
2023/01/15 12:14:52;;;;;;;12.73;2.88;;;6.60;99.90;;;;;;5055599;28;20049;-51
2023/01/15 12:17:51;;;;;;;15.73;2.28;;;6.60;99.90;;;;;;5055153;28;20044;-50
2023/01/15 12:20:51;;;;;;;21.90;2.72;;;6.50;99.90;;;;;;5056595;28;20037;-51
2023/01/15 12:23:44;;;;;;;18.30;2.58;;;6.50;99.90;;;;;;5057122;28;20533;-46
2023/01/15 12:26:23;;;;;;;14.25;2.03;;;6.10;66.90;;;;;;5056228;28;20048;-51
2023/01/15 12:29:05;;;;;;;11.68;1.30;;;5.80;87.20;;;;;;5054657;28;20045;-50
2023/01/15 12:31:45;;;;;;;9.07;1.88;;;5.50;99.90;;;;;;5054437;28;20119;-48
2023/01/15 12:34:21;;;;;;;8.52;1.30;;;5.20;99.90;;;;;;5054745;28;20090;-50
2023/01/15 12:37:11;;;;;;;10.73;1.48;;;5.00;99.90;;;;;;5054041;28;20056;-50
2023/01/15 12:39:47;;;;;;;7.82;1.83;;;5.00;99.90;;;;;;5054036;28;20412;-46
2023/01/15 12:45:11;;;;;;;11.25;1.50;;;4.90;99.90;;;;;;5054683;28;20087;-50
2023/01/15 12:47:53;;;;;;;11.10;1.90;;;4.90;99.90;;;;;;5054372;28;20565;-44
2023/01/15 12:50:19;;;;;;;6.65;1.98;;;;;;;;;;5054980;28;20037;-48
2023/01/15 12:52:48;;;;;;;12.30;1.65;;;5.00;99.90;;;;;;5054793;28;20056;-50
2023/01/15 12:55:14;;;;;;;8.13;1.33;;;;;;;;;;5055196;28;20048;-47
2023/01/15 12:57:48;;;;;;;7.65;1.25;;;5.00;99.90;;;;;;5054517;28;20047;-46
2023/01/15 13:00:19;;;;;;;8.82;1.60;;;4.90;99.90;;;;;;5053083;28;20048;-49
2023/01/15 13:03:26;;;;;;;8.07;1.27;;;5.00;99.90;;;;;;5053183;28;20119;-48
2023/01/15 13:05:57;;;;;;;6.35;1.15;;;5.10;99.90;;;;;;5041763;28;20229;-51
2023/01/15 13:08:37;;;;;;;4.65;1.00;;;5.30;99.90;;;;;;5054067;28;20079;-50
2023/01/15 13:11:05;;;;;;;11.70;1.20;;;;;;;;;;5053923;28;20512;-47
2023/01/15 13:13:40;;;;;;;8.15;1.20;;;5.20;99.90;;;;;;5051851;28;20060;-50
2023/01/15 13:16:15;;;;;;;6.35;1.05;;;5.10;99.90;;;;;;5053653;28;20208;-49
2023/01/15 13:19:45;;;;;;;6.32;1.08;;;5.30;99.90;;;;;;5054880;28;20106;-47
2023/01/15 13:22:18;;;;;;;8.25;1.48;;;4.80;99.90;;;;;;4976055;28;20253;-48
2023/01/15 13:25:28;;;;;;;9.55;1.25;;;5.20;99.90;;;;;;5053884;28;20480;-50
2023/01/15 13:27:54;;;;;;;9.02;1.20;;;;;;;;;;5046361;28;20386;-49
2023/01/15 13:30:39;;;;;;;9.88;2.95;;;5.10;99.90;;;;;;5054285;28;20515;-48
2023/01/15 13:33:28;;;;;;;7.93;2.28;;;5.20;99.90;;;;;;5053345;28;20048;-52
2023/01/15 13:36:05;;;;;;;11.35;1.60;;;5.30;99.90;;;;;;5052670;28;20141;-48
2023/01/15 13:38:38;;;;;;;10.63;1.60;;;5.10;99.90;;;;;;5054296;28;20074;-46
2023/01/15 13:41:06;;;;;;;16.77;2.25;;;5.10;99.90;;;;;;5054572;28;20087;-51
2023/01/15 13:43:42;;;;;;;12.70;1.80;;;5.10;99.90;;;;;;5053172;28;20181;-48
2023/01/15 13:46:18;;;;;;;12.13;2.47;;;5.10;99.90;;;;;;5053503;28;21034;-50
2023/01/15 13:48:47;;;;;;;7.53;1.48;;;5.30;99.90;;;;;;5053171;28;20517;-51
2023/01/15 13:51:29;;;;;;;11.82;2.00;;;5.20;99.90;;;;;;5053642;28;20094;-48
2023/01/15 13:53:58;;;;;;;7.22;1.73;;;5.20;99.90;;;;;;5054734;28;20039;-50
2023/01/15 13:56:30;;;;;;;14.88;1.88;;;5.40;99.90;;;;;;5053479;28;20094;-49
2023/01/15 13:59:04;;;;;;;12.13;2.85;;;5.20;99.90;;;;;;5053825;28;20056;-51
2023/01/15 14:01:30;;;;;;;13.23;2.15;;;;;;;;;;5054677;28;20048;-47
2023/01/15 14:03:56;;;;;;;8.98;1.45;;;;;;;;;;5052904;28;20041;-50
2023/01/15 14:06:22;;;;;;;10.80;1.45;;;;;;;;;;5052152;28;20043;-51
2023/01/15 14:08:51;;;;;;;11.55;1.83;;;;;;;;;;5051869;28;20454;-51
2023/01/15 14:11:53;;;;;;;9.85;2.33;;;5.20;99.90;;;;;;5051919;28;20512;-53
2023/01/15 14:14:38;;;;;;;;;;;5.10;99.90;;;;;;5085655;28;20536;-50
2023/01/15 14:17:25;;;;;;;13.70;2.95;;;5.20;99.90;;;;;;5052192;28;19954;-47
2023/01/15 14:20:16;;;;;;;13.23;2.65;;;5.30;99.90;;;;;;5052944;28;20052;-50
2023/01/15 14:23:04;;;;;;;10.38;1.80;;;5.30;99.90;;;;;;5052089;28;20044;-49
2023/01/15 14:25:54;;;;;;;12.20;2.15;;;5.40;99.90;;;;;;5051831;28;20036;-51
2023/01/15 14:28:31;;;;;;;8.07;1.33;;;5.40;99.90;;;;;;5053106;28;20059;-51
2023/01/15 14:31:15;;;;;;;8.30;1.50;;;5.40;99.90;;;;;;5053016;28;20060;-48
2023/01/15 14:34:17;;;;;;;11.20;1.65;;;5.40;99.90;;;;;;5052089;28;20495;-51
2023/01/15 14:37:03;;;;;;;22.20;4.13;;;5.50;99.90;;;;;;5052124;28;20284;-50
2023/01/15 14:39:29;;;;;;;11.98;2.38;;;;;;;;;;5053541;28;20461;-50
2023/01/15 14:44:45;;;;;;;12.13;1.77;;;;;;;;;;5052486;28;20138;-48